METAR Data
IDs: Format: Raw Decoded Include TAF

Data at: 0442 UTC 26 Sep 2018

KMZZ 260435Z AUTO 00000KT 7SM -RA SCT036 BKN065 BKN120 21/16 A2992 RMK AO2 P0001 T02140157
KMZZ 260415Z AUTO 21007KT 10SM CLR A2991 RMK AO2
KMZZ 260355Z AUTO 00000KT 7SM SCT015 A2991 RMK AO2
KMZZ 260335Z AUTO 20006KT 7SM OVC015 A2991 RMK AO2
KMZZ 260315Z AUTO 00000KT 10SM BKN017 BKN100 A2992 RMK AO2
KMZZ 260255Z AUTO 00000KT 10SM SCT017 BKN100 OVC120 A2992 RMK AO2
KMZZ 260235Z AUTO 00000KT 7SM OVC100 A2991 RMK AO2
KMZZ 260215Z AUTO 00000KT 10SM OVC100 A2992 RMK AO2
KMZZ 260155Z AUTO 20009KT 10SM SCT060 BKN100 A2992 RMK AO2
KMZZ 260135Z AUTO 21007G15KT 10SM SCT013 BKN060 BKN100 22/13 A2991 RMK AO2 T02180125
KMZZ 260115Z AUTO 20010G19KT 10SM SCT013 BKN090 22/12 A2991 RMK AO2 T02210124
KMZZ 260055Z AUTO 20011G15KT 7SM BKN090 A2989 RMK AO2
KMZZ 260035Z AUTO 19004KT 10SM SCT023 BKN100 A2990 RMK AO2
KMZZ 260015Z AUTO 00000KT 7SM OVC100 A2991 RMK AO2
KMZZ 252355Z AUTO 00000KT 10SM OVC100 A2991 RMK AO2 60004
KMZZ 252335Z AUTO 21003KT 7SM OVC090 A2991 RMK AO2
KMZZ 252315Z AUTO 21009KT 10SM OVC090 A2990 RMK AO2
KMZZ 252255Z AUTO 21008KT 7SM SCT027 SCT038 BKN090 23/08 A2990 RMK AO2 T02320083
KMZZ 252235Z AUTO 22009G15KT 7SM SCT021 SCT027 SCT038 24/07 A2990 RMK AO2 T02390066
KMZZ 252215Z AUTO 23014G19KT 3/4SM HZ OVC023 24/08 A2989 RMK AO2 T02370082
KMZZ 252155Z AUTO 23010G18KT 1SM HZ BKN021 OVC028 23/11 A2989 RMK AO2 VIS 1/2V5 T02320114
KMZZ 252135Z AUTO 22008G14KT 1 1/4SM HZ BKN018 OVC028 23/15 A2988 RMK AO2 T02280145
KMZZ 252115Z AUTO 20009G16KT 3/4SM HZ SCT014 OVC020 23/15 A2988 RMK AO2 T02260150
KMZZ 252055Z AUTO 19011KT 3/4SM HZ OVC018 A2987 RMK AO2 60004
KMZZ 252035Z AUTO 20010G15KT 3/4SM -RA BKN012 OVC018 A2989 RMK AO2
KMZZ 252015Z AUTO 20006KT 7SM -RA SCT012 BKN024 OVC033 22/17 A2990 RMK AO2 T02230166
KMZZ 251955Z AUTO 20012G17KT 4SM HZ SCT012 BKN017 OVC031 23/15 A2991 RMK AO2 P0004 T02260146
KMZZ 251935Z AUTO 00000KT 7SM BKN013 OVC022 A2991 RMK AO2
KMZZ 251915Z AUTO 00000KT 1 1/4SM BR OVC013 A2992 RMK AO2
KMZZ 251855Z AUTO 00000KT 1 1/2SM BR BKN013 BKN095 BKN120 A2993 RMK AO2
KMZZ 251835Z AUTO 00000KT 7SM SCT015 SCT023 BKN028 A2994 RMK AO2
KMZZ 251815Z AUTO 00000KT 10SM SCT026 BKN033 BKN100 A2997 RMK AO2
KMZZ 251755Z AUTO 00000KT 7SM SCT036 SCT046 BKN110 A2999 RMK AO2 P0002 60043
KMZZ 251735Z AUTO 00000KT 7SM SCT018 SCT047 BKN110 A3000 RMK AO2 P0002
KMZZ 251715Z AUTO 20010KT 7SM -RA SCT010 SCT034 BKN110 A2999 RMK AO2 P0002
KMZZ 251655Z AUTO 00000KT 7SM -RA SCT009 BKN080 OVC110 A2999 RMK AO2 P0016
KMZZ 251635Z AUTO 25013G22KT 2 1/2SM -RA BKN009 BKN023 OVC045 A3001 RMK AO2 P0014
KMZZ 251615Z AUTO 21007KT 3SM RA BKN006 OVC011 A3001 RMK AO2 P0005
KMZZ 251555Z AUTO 00000KT 4SM RA OVC006 A2999 RMK AO2 P0004
KMZZ 251535Z AUTO 00000KT 7SM -RA OVC006 A2999 RMK AO2
KMZZ 251515Z AUTO 19008KT 7SM OVC006 A2998 RMK AO2
KMZZ 251455Z AUTO 00000KT 7SM OVC006 A3000 RMK AO2 60021
KMZZ 251435Z AUTO 20005KT 7SM OVC008 A3000 RMK AO2
KMZZ 251415Z AUTO 00000KT 10SM BKN010 BKN120 A2999 RMK AO2
KMZZ 251355Z AUTO 00000KT 10SM SCT008 SCT055 BKN120 A2999 RMK AO2
KMZZ 251335Z AUTO 00000KT 7SM SCT030 SCT055 BKN080 A2999 RMK AO2
KMZZ 251315Z AUTO 00000KT 7SM SCT032 BKN049 BKN065 A2999 RMK AO2
KMZZ 251255Z AUTO 00000KT 7SM SCT037 SCT060 BKN090 A2999 RMK AO2 P0021
KMZZ 251235Z AUTO 21005KT 2SM -RA BKN008 BKN031 OVC039 A3000 RMK AO2 P0020
KMZZ 251215Z AUTO 00000KT 2 1/2SM -RA OVC008 A3000 RMK AO2 P0011
KMZZ 251154Z AUTO 00000KT 7SM BKN010 OVC014 A2999 RMK AO2 P0022
KMZZ 251135Z AUTO 00000KT 5SM HZ SCT014 BKN019 OVC026 A2999 RMK AO2 P0022
KMZZ 251114Z AUTO 00000KT 1 3/4SM +RA SCT009 BKN022 OVC028 A2999 RMK AO2 P0020
KMZZ 251035Z AUTO 00000KT 4SM -RA BKN011 BKN030 OVC095 A2999 RMK AO2 P0002
KMZZ 251015Z AUTO 00000KT 7SM OVC011 A2999 RMK AO2
KMZZ 250935Z AUTO 00000KT 1 3/4SM RA OVC005 A2998 RMK AO2 P0024
KMZZ 250915Z AUTO 00000KT 3SM RA OVC007 A2997 RMK AO2 P0002
KMZZ 250855Z AUTO 00000KT 3SM BR OVC007 A2997 RMK AO2
KMZZ 250835Z AUTO 00000KT 4SM HZ OVC007 A2998 RMK AO2
KMZZ 250815Z AUTO 00000KT 4SM HZ OVC007 A2998 RMK AO2
KMZZ 250755Z AUTO 00000KT 2 1/2SM BR OVC007 A2997 RMK AO2
KMZZ 250735Z AUTO 00000KT 5SM HZ OVC007 A2998 RMK AO2
KMZZ 250715Z AUTO 00000KT 5SM HZ BKN007 BKN011 OVC021 A2999 RMK AO2
KMZZ 250655Z AUTO 00000KT 5SM HZ BKN007 OVC021 A2999 RMK AO2
KMZZ 250635Z AUTO 00000KT 7SM OVC007 A3000 RMK AO2
KMZZ 250615Z AUTO 00000KT 5SM HZ OVC007 A2999 RMK AO2
KMZZ 250555Z AUTO 00000KT 5SM HZ OVC007 A2999 RMK AO2 60007
KMZZ 250535Z AUTO 00000KT 5SM HZ OVC007 A2999 RMK AO2
KMZZ 250515Z AUTO 00000KT 5SM HZ OVC007 A2999 RMK AO2
KMZZ 250455Z AUTO 00000KT 5SM HZ OVC007 A2999 RMK AO2
KMZZ 250435Z AUTO 00000KT 5SM HZ OVC009 A3000 RMK AO2
KMZZ 250415Z AUTO 00000KT 5SM HZ BKN009 OVC014 A3000 RMK AO2
KMZZ 250355Z AUTO 00000KT 7SM BKN008 BKN016 OVC037 A2999 RMK AO2
KMZZ 250335Z AUTO 19005KT 4SM HZ BKN008 BKN025 OVC037 A2999 RMK AO2
KMZZ 250315Z AUTO 18006KT 2 1/2SM BR OVC006 A2999 RMK AO2
KMZZ 250255Z AUTO 00000KT 2SM BR OVC006 A2999 RMK AO2 P0006 60007
KMZZ 250235Z AUTO 00000KT 1 1/4SM -RA OVC006 A2999 RMK AO2 P0006
KMZZ 250215Z AUTO 00000KT 3SM BR OVC008 A2999 RMK AO2 P0001
KMZZ 250155Z AUTO 00000KT 2SM BR OVC008 A2998 RMK AO2 P0001
KMZZ 250135Z AUTO 00000KT 4SM HZ OVC008 A2998 RMK AO2
KMZZ 250115Z AUTO 00000KT 10SM OVC008 A2998 RMK AO2
KMZZ 250055Z AUTO 00000KT 7SM OVC008 A2998 RMK AO2
KMZZ 250035Z AUTO 00000KT 10SM BKN008 OVC013 A2997 RMK AO2
KMZZ 250015Z AUTO 15005KT 7SM OVC012 A2997 RMK AO2
KMZZ 242355Z AUTO 00000KT 7SM OVC012 A2997 RMK AO2 60001
KMZZ 242335Z AUTO 00000KT 5SM HZ OVC014 A2998 RMK AO2
KMZZ 242315Z AUTO 00000KT 4SM HZ OVC014 A2998 RMK AO2
KMZZ 242255Z AUTO 00000KT 7SM OVC014 A2998 RMK AO2
KMZZ 242235Z AUTO 00000KT 5SM HZ SCT016 BKN026 OVC032 A2998 RMK AO2
KMZZ 242215Z AUTO 00000KT 5SM HZ SCT004 BKN026 OVC040 A2999 RMK AO2
KMZZ 242155Z AUTO 00000KT 3SM BR BKN006 OVC011 A2999 RMK AO2
KMZZ 242135Z AUTO 00000KT 4SM HZ BKN004 OVC012 A3000 RMK AO2
KMZZ 242115Z AUTO 00000KT 3SM BR BKN006 OVC010 A3000 RMK AO2
KMZZ 242055Z AUTO 00000KT 1 3/4SM BR OVC006 A3001 RMK AO2 60001
KMZZ 242035Z AUTO 13006KT 4SM HZ OVC006 A3001 RMK AO2
KMZZ 242015Z AUTO 00000KT 4SM HZ BKN006 OVC013 A3001 RMK AO2
KMZZ 241955Z AUTO 00000KT 1 1/2SM BR OVC006 A3002 RMK AO2 P0001
KMZZ 241935Z AUTO 00000KT 3SM BR BKN006 OVC010 A3002 RMK AO2
KMZZ 241915Z AUTO 14005KT 3SM BR OVC006 A3003 RMK AO2
KMZZ 241855Z AUTO 00000KT 2 1/2SM BR BKN008 OVC012 A3003 RMK AO2
KMZZ 241835Z AUTO 00000KT 1 3/4SM BR OVC012 A3004 RMK AO2
KMZZ 241815Z AUTO 15003KT 3SM BR OVC012 A3005 RMK AO2
KMZZ 241755Z AUTO 14006KT 10SM OVC012 A3007 RMK AO2 60002
KMZZ 241735Z AUTO 00000KT 7SM OVC010 A3008 RMK AO2
KMZZ 241715Z AUTO 00000KT 7SM SCT005 BKN012 OVC047 A3008 RMK AO2
KMZZ 241655Z AUTO 00000KT 5SM HZ BKN031 OVC045 A3009 RMK AO2 P0001